Gilcrest, Colorado
Current Conditions -  °F | °C
As of 1:55 PM on Friday 19 Dec 2014 (Local Time) from KGXY Reporting Station
Clear Clear  
Wind Chill: 48°   Ceiling: Unl
Heat Index: 48°   Visibility: 10mi
Dew Point: 18°   Wind: 0mph
Humidity: 30%   Direction: NA
Pressure: 29.98"   Gusts: NA
Location:  40.28°N, 104.78°W
Report Text: KGXY 192055Z AUTO 00000KT 10SM CLR 09/M08 A2998 RMK AO1 57034
Loading
Personal Weather Stations






























Interactive Weather Map New forecast layout! Learn more

10-Day Weather Forecast

Advertisements
Track Severe Weather on mobile